createdAt,value
2022-10-18T00:00:23.244Z,9.58
2022-10-18T00:02:50.642Z,9.55
2022-10-18T00:05:18.144Z,9.53
2022-10-18T00:07:45.594Z,9.50
2022-10-18T00:10:12.948Z,9.51
2022-10-18T00:12:41.097Z,9.59
2022-10-18T00:15:09.186Z,9.57
2022-10-18T00:17:38.362Z,9.58
2022-10-18T00:20:07.241Z,9.56
2022-10-18T00:22:36.856Z,9.57
2022-10-18T00:25:05.828Z,9.52
2022-10-18T00:27:34.151Z,9.51
2022-10-18T00:30:01.505Z,9.47
2022-10-18T00:32:31.658Z,9.46
2022-10-18T00:34:59.656Z,9.41
2022-10-18T00:37:26.984Z,9.41
2022-10-18T00:39:54.331Z,9.43
2022-10-18T00:42:33.370Z,9.61
2022-10-18T00:45:15.604Z,9.61
2022-10-18T00:47:46.004Z,9.51
2022-10-18T00:50:14.112Z,9.47
2022-10-18T00:52:52.031Z,9.60
2022-10-18T00:55:20.155Z,9.46
2022-10-18T00:57:50.245Z,9.49
2022-10-18T01:00:18.736Z,9.51
2022-10-18T01:02:47.208Z,9.54
2022-10-18T01:05:17.083Z,9.50
2022-10-18T01:08:21.635Z,9.65
2022-10-18T01:10:48.970Z,9.46
2022-10-18T01:13:46.723Z,9.63
2022-10-18T01:16:46.250Z,9.48
2022-10-18T01:19:47.849Z,9.56
2022-10-18T01:22:42.081Z,9.46
2022-10-18T01:25:33.607Z,9.56
2022-10-18T01:28:26.309Z,9.46
2022-10-18T01:31:05.321Z,9.43
2022-10-18T01:33:46.400Z,9.40
2022-10-18T01:36:24.121Z,9.27
2022-10-18T01:38:54.686Z,9.26
2022-10-18T01:41:25.550Z,9.25
2022-10-18T01:43:57.695Z,9.20
2022-10-18T01:46:26.810Z,9.16
2022-10-18T01:48:55.626Z,9.19
2022-10-18T01:51:33.601Z,9.32
2022-10-18T01:54:01.427Z,9.16
2022-10-18T01:57:07.142Z,9.28
2022-10-18T01:59:41.047Z,9.28
2022-10-18T02:02:26.984Z,9.45
2022-10-18T02:05:03.438Z,9.18
2022-10-18T02:08:12.430Z,9.24
2022-10-18T02:10:50.068Z,9.05
2022-10-18T02:13:20.854Z,9.10
2022-10-18T02:16:14.307Z,9.13
2022-10-18T02:18:46.400Z,9.03
2022-10-18T02:21:17.931Z,9.02
2022-10-18T02:23:49.008Z,9.08
2022-10-18T02:26:17.207Z,8.98
2022-10-18T02:28:46.297Z,9.05
2022-10-18T02:31:13.774Z,9.01
2022-10-18T02:33:56.106Z,9.17
2022-10-18T02:36:38.365Z,9.19
2022-10-18T02:39:11.835Z,9.11
2022-10-18T02:41:39.363Z,9.00
2022-10-18T02:44:06.729Z,8.99
2022-10-18T02:46:35.187Z,9.06
2022-10-18T02:49:02.668Z,9.02
2022-10-18T02:51:29.989Z,8.99
2022-10-18T02:53:57.447Z,9.02
2022-10-18T02:56:24.941Z,8.98
2022-10-18T02:58:52.315Z,8.97
2022-10-18T03:01:19.778Z,8.99
2022-10-18T03:03:47.301Z,9.01
2022-10-18T03:06:14.615Z,9.00
2022-10-18T03:08:42.024Z,9.04
2022-10-18T03:11:09.518Z,9.11
2022-10-18T03:13:37.100Z,9.20
2022-10-18T03:16:04.740Z,9.32
2022-10-18T03:18:32.106Z,9.45
2022-10-18T03:20:59.635Z,9.53
2022-10-18T03:23:27.074Z,9.64
2022-10-18T03:25:54.444Z,9.81
2022-10-18T03:28:21.822Z,10.05
2022-10-18T03:30:49.214Z,10.36
2022-10-18T03:33:17.344Z,10.68
2022-10-18T03:35:44.656Z,11.02
2022-10-18T03:38:12.146Z,11.42
2022-10-18T03:40:39.475Z,11.71
2022-10-18T03:43:06.919Z,12.04
2022-10-18T03:45:34.252Z,12.41
2022-10-18T03:48:01.710Z,12.76
2022-10-18T03:50:29.281Z,13.13
2022-10-18T03:52:56.715Z,13.45
2022-10-18T03:55:24.241Z,13.83
2022-10-18T03:57:51.680Z,14.15
2022-10-18T04:00:19.113Z,14.42
2022-10-18T04:02:46.783Z,14.83
2022-10-18T04:05:14.951Z,15.21
2022-10-18T04:07:42.348Z,15.44
2022-10-18T04:10:09.932Z,15.76
2022-10-18T04:12:37.467Z,16.04
2022-10-18T04:15:05.187Z,16.39
2022-10-18T04:17:32.802Z,16.63
2022-10-18T04:20:00.600Z,16.98
2022-10-18T04:22:27.943Z,17.25
2022-10-18T04:24:57.052Z,17.43
2022-10-18T04:27:24.778Z,17.62
2022-10-18T04:29:52.112Z,17.74
2022-10-18T04:32:19.507Z,17.75
2022-10-18T04:34:46.957Z,17.96
2022-10-18T04:37:14.446Z,18.07
2022-10-18T04:39:49.840Z,18.34
2022-10-18T04:42:20.258Z,18.53
2022-10-18T04:44:47.706Z,18.71
2022-10-18T04:47:15.544Z,18.71
2022-10-18T04:49:43.027Z,18.62
2022-10-18T04:52:10.608Z,18.40
2022-10-18T04:54:38.071Z,18.31
2022-10-18T04:57:05.533Z,18.20
2022-10-18T04:59:32.930Z,18.02
2022-10-18T05:02:00.527Z,17.93
2022-10-18T05:04:27.931Z,17.91
2022-10-18T05:06:55.383Z,18.03
2022-10-18T05:09:24.943Z,18.15
2022-10-18T05:11:52.390Z,18.24
2022-10-18T05:14:19.720Z,18.34
2022-10-18T05:16:47.173Z,18.35
2022-10-18T05:19:14.519Z,18.44
2022-10-18T05:21:41.911Z,18.54
2022-10-18T05:24:12.039Z,18.68
2022-10-18T05:26:39.500Z,18.73
2022-10-18T05:29:07.201Z,18.87
2022-10-18T05:31:34.811Z,19.07
2022-10-18T05:34:02.538Z,19.26
2022-10-18T05:36:30.075Z,19.38
2022-10-18T05:39:00.946Z,19.66
2022-10-18T05:41:32.119Z,20.03
2022-10-18T05:43:59.628Z,20.26
2022-10-18T05:46:26.924Z,20.49
2022-10-18T05:48:54.303Z,20.66
2022-10-18T05:51:21.659Z,20.66
2022-10-18T05:53:49.105Z,20.66
2022-10-18T05:56:16.478Z,20.63
2022-10-18T05:58:43.878Z,20.58
2022-10-18T06:01:11.316Z,20.64
2022-10-18T06:03:38.776Z,20.66
2022-10-18T06:06:09.488Z,20.63
2022-10-18T06:08:38.006Z,20.51
2022-10-18T06:11:11.179Z,20.61
2022-10-18T06:13:50.115Z,20.80
2022-10-18T06:16:20.521Z,20.58
2022-10-18T06:18:55.365Z,20.98
2022-10-18T06:21:24.463Z,21.22
2022-10-18T06:23:59.330Z,21.23
2022-10-18T06:26:28.148Z,21.44
2022-10-18T06:28:55.633Z,21.49
2022-10-18T06:31:23.182Z,21.25
2022-10-18T06:33:50.872Z,21.33
2022-10-18T06:36:25.297Z,21.38
2022-10-18T06:38:53.110Z,21.34
2022-10-18T06:41:20.835Z,21.17
2022-10-18T06:43:53.517Z,21.23
2022-10-18T06:46:21.017Z,21.11
2022-10-18T06:48:48.435Z,20.89
2022-10-18T06:51:15.775Z,20.88
2022-10-18T06:53:53.455Z,20.67
2022-10-18T06:56:30.841Z,20.49
2022-10-18T07:01:27.098Z,20.63
2022-10-18T07:03:55.497Z,20.69
2022-10-18T07:06:24.118Z,20.72
2022-10-18T07:08:55.216Z,20.64
2022-10-18T07:11:25.394Z,20.64
2022-10-18T07:13:54.807Z,20.59
2022-10-18T07:16:22.238Z,20.48
2022-10-18T07:18:51.645Z,20.46
2022-10-18T07:21:22.261Z,20.52
2022-10-18T07:23:51.082Z,20.32
2022-10-18T07:26:22.955Z,20.28
2022-10-18T07:28:58.217Z,20.32
2022-10-18T07:31:26.361Z,20.09
2022-10-18T07:33:54.551Z,20.01
2022-10-18T07:36:22.498Z,19.81
2022-10-18T07:38:52.186Z,19.76
2022-10-18T07:41:19.918Z,19.61
2022-10-18T07:43:51.046Z,19.56
2022-10-18T07:46:20.295Z,19.30
2022-10-18T07:48:47.963Z,19.15
2022-10-18T07:51:15.832Z,19.02
2022-10-18T07:53:43.315Z,18.76
2022-10-18T07:56:16.645Z,18.68
2022-10-18T07:58:44.404Z,19.18
2022-10-18T08:01:12.762Z,18.47
2022-10-18T08:03:42.198Z,18.19
2022-10-18T08:06:12.077Z,18.06
2022-10-18T08:08:40.844Z,17.89
2022-10-18T08:11:11.775Z,17.78
2022-10-18T08:13:39.270Z,17.56
2022-10-18T08:16:09.089Z,17.36
2022-10-18T08:18:37.495Z,17.08
2022-10-18T08:21:07.499Z,17.04
2022-10-18T08:23:35.685Z,17.01
2022-10-18T08:26:05.341Z,16.96
2022-10-18T08:28:33.268Z,16.89
2022-10-18T08:31:04.991Z,16.72
2022-10-18T08:33:33.156Z,16.51
2022-10-18T08:36:02.163Z,16.40
2022-10-18T08:38:31.665Z,16.29
2022-10-18T08:41:02.722Z,16.25
2022-10-18T08:43:56.595Z,16.28
2022-10-18T08:46:24.134Z,15.82
2022-10-18T08:48:55.356Z,15.76
2022-10-18T08:51:45.162Z,15.87
2022-10-18T08:54:14.961Z,15.71
2022-10-18T08:56:46.086Z,15.67
2022-10-18T08:59:14.508Z,15.45
2022-10-18T09:02:01.361Z,15.66
2022-10-18T09:04:47.579Z,15.68
2022-10-18T09:07:33.583Z,15.33
2022-10-18T09:10:21.059Z,15.25
2022-10-18T09:13:00.367Z,14.94
2022-10-18T09:15:45.706Z,14.98
2022-10-18T09:18:45.247Z,14.90
2022-10-18T09:21:15.376Z,14.49
2022-10-18T09:24:13.505Z,14.58
2022-10-18T09:26:58.126Z,14.37
2022-10-18T09:29:53.314Z,14.31
2022-10-18T09:32:56.070Z,14.28
2022-10-18T09:35:29.304Z,14.14
2022-10-18T09:38:04.900Z,14.15
2022-10-18T09:40:39.989Z,13.96
2022-10-18T09:43:15.134Z,13.89
2022-10-18T09:45:46.111Z,13.77
2022-10-18T09:48:29.341Z,13.90
2022-10-18T09:50:58.791Z,13.69
2022-10-18T09:53:37.240Z,13.81
2022-10-18T09:56:14.923Z,13.76
2022-10-18T09:58:48.033Z,13.66
2022-10-18T10:01:21.697Z,13.54
2022-10-18T10:03:49.221Z,13.42
2022-10-18T10:06:23.472Z,13.44
2022-10-18T10:08:58.860Z,13.43
2022-10-18T10:11:33.326Z,13.38
2022-10-18T10:14:13.233Z,13.37
2022-10-18T10:17:03.603Z,13.44
2022-10-18T10:19:55.065Z,13.31
2022-10-18T10:22:32.037Z,13.36
2022-10-18T10:25:00.043Z,13.20
2022-10-18T10:27:41.679Z,13.27
2022-10-18T10:30:27.451Z,13.41
2022-10-18T10:32:57.081Z,13.14
2022-10-18T10:35:59.886Z,13.29
2022-10-18T10:38:30.280Z,13.12
2022-10-18T10:40:58.677Z,12.98
2022-10-18T10:43:38.218Z,12.98
2022-10-18T10:46:11.850Z,12.96
2022-10-18T10:49:15.356Z,13.03
2022-10-18T10:51:45.169Z,12.81
2022-10-18T10:54:17.452Z,12.80
2022-10-18T10:57:20.164Z,12.93
2022-10-18T10:59:54.506Z,12.77
2022-10-18T11:02:36.378Z,12.83
2022-10-18T11:05:26.096Z,12.90
2022-10-18T11:07:57.973Z,12.71
2022-10-18T11:10:29.733Z,12.76
2022-10-18T11:13:35.846Z,12.78
2022-10-18T11:16:43.428Z,12.79
2022-10-18T11:19:37.954Z,12.68
2022-10-18T11:22:10.759Z,12.57
2022-10-18T11:24:38.370Z,12.50
2022-10-18T11:27:19.558Z,12.47
2022-10-18T11:30:03.626Z,12.47
2022-10-18T11:32:58.782Z,12.41
2022-10-18T11:35:42.163Z,12.42
2022-10-18T11:38:18.471Z,12.69
2022-10-18T11:41:14.130Z,12.55
2022-10-18T11:44:12.253Z,12.46
2022-10-18T11:47:03.638Z,12.39
2022-10-18T11:50:04.407Z,12.45
2022-10-18T11:52:47.640Z,12.23
2022-10-18T11:55:56.663Z,12.32
2022-10-18T11:58:54.339Z,12.32
2022-10-18T12:01:28.852Z,12.19
2022-10-18T12:04:18.061Z,12.26
2022-10-18T12:06:49.429Z,12.09
2022-10-18T12:09:37.590Z,12.24
2022-10-18T12:12:26.997Z,12.04
2022-10-18T12:14:59.754Z,12.12
2022-10-18T12:17:49.857Z,12.18
2022-10-18T12:20:40.636Z,11.99
2022-10-18T12:23:20.807Z,12.03
2022-10-18T12:25:55.749Z,12.00
2022-10-18T12:28:41.513Z,12.09
2022-10-18T12:31:27.044Z,11.88
2022-10-18T12:33:58.848Z,11.88
2022-10-18T12:36:47.610Z,12.02
2022-10-18T12:39:58.438Z,12.05
2022-10-18T12:42:33.941Z,11.85
2022-10-18T12:45:33.503Z,12.03
2022-10-18T12:48:08.932Z,11.91
2022-10-18T12:50:42.811Z,11.86
2022-10-18T12:53:10.264Z,11.78
2022-10-18T12:58:15.880Z,11.78
2022-10-18T13:00:43.180Z,11.76
2022-10-18T13:03:13.370Z,11.72
2022-10-18T13:05:55.568Z,11.82
2022-10-18T13:08:35.484Z,11.80
2022-10-18T13:11:09.227Z,11.75
2022-10-18T13:13:55.536Z,11.89
2022-10-18T13:16:28.640Z,11.70
2022-10-18T13:19:10.064Z,11.76
2022-10-18T13:22:14.987Z,11.82
2022-10-18T13:25:01.933Z,11.59
2022-10-18T13:27:51.642Z,11.64
2022-10-18T13:30:19.026Z,11.44
2022-10-18T13:33:14.903Z,11.60
2022-10-18T13:35:50.609Z,11.47
2022-10-18T13:38:38.501Z,11.59
2022-10-18T13:41:08.556Z,11.29
2022-10-18T13:43:58.388Z,11.52
2022-10-18T13:46:35.157Z,11.45
2022-10-18T13:49:17.693Z,11.46
2022-10-18T13:52:33.016Z,11.53
2022-10-18T13:55:06.539Z,11.39
2022-10-18T13:58:06.567Z,11.45
2022-10-18T14:00:56.240Z,11.45
2022-10-18T14:03:51.951Z,11.38
2022-10-18T14:06:25.274Z,11.39
2022-10-18T14:09:26.117Z,11.62
2022-10-18T14:12:14.903Z,11.37
2022-10-18T14:14:42.318Z,11.35
2022-10-18T14:20:21.082Z,11.38
2022-10-18T14:22:57.112Z,11.34
2022-10-18T14:25:30.957Z,11.31
2022-10-18T14:28:06.112Z,11.62
2022-10-18T14:30:36.508Z,11.32
2022-10-18T14:33:04.458Z,11.35
2022-10-18T14:35:35.481Z,11.32
2022-10-18T14:38:03.098Z,11.21
2022-10-18T14:40:32.589Z,11.13
2022-10-18T14:43:15.074Z,11.34
2022-10-18T14:45:43.410Z,11.16
2022-10-18T14:48:16.857Z,11.21
2022-10-18T14:50:47.665Z,11.18
2022-10-18T14:53:22.215Z,11.22
2022-10-18T14:56:01.056Z,11.28
2022-10-18T14:58:28.940Z,11.13
2022-10-18T15:00:56.780Z,11.01
2022-10-18T15:03:24.896Z,10.99
2022-10-18T15:06:01.429Z,11.09
2022-10-18T15:08:42.654Z,11.16
2022-10-18T15:11:14.522Z,11.01
2022-10-18T15:13:50.852Z,11.14
2022-10-18T15:16:21.060Z,11.09
2022-10-18T15:19:24.779Z,11.23
2022-10-18T15:25:16.983Z,11.17
2022-10-18T15:27:53.714Z,10.99
2022-10-18T15:30:27.692Z,10.89
2022-10-18T15:33:01.371Z,10.96
2022-10-18T15:35:34.919Z,10.94
2022-10-18T15:38:15.231Z,11.00
2022-10-18T15:40:43.416Z,10.83
2022-10-18T15:43:26.184Z,10.97
2022-10-18T15:45:58.837Z,10.90
2022-10-18T15:48:38.924Z,10.83
2022-10-18T15:51:26.703Z,10.84
2022-10-18T15:53:55.385Z,10.74
2022-10-18T15:56:30.860Z,10.77
2022-10-18T15:59:01.124Z,10.69
2022-10-18T16:01:37.400Z,10.79
2022-10-18T16:04:21.129Z,10.76
2022-10-18T16:06:48.756Z,10.67
2022-10-18T16:09:18.364Z,10.68
2022-10-18T16:11:46.308Z,10.61
2022-10-18T16:14:13.979Z,10.69
2022-10-18T16:16:41.477Z,10.69
2022-10-18T16:19:10.351Z,10.59
2022-10-18T16:21:39.411Z,10.63
2022-10-18T16:24:07.166Z,10.59
2022-10-18T16:26:35.508Z,10.58
2022-10-18T16:29:03.661Z,10.49
2022-10-18T16:31:33.940Z,10.56
2022-10-18T16:34:02.468Z,10.46
2022-10-18T16:36:32.559Z,10.48
2022-10-18T16:39:02.714Z,10.42
2022-10-18T16:41:30.147Z,10.42
2022-10-18T16:43:57.587Z,10.45
2022-10-18T16:46:31.189Z,10.53
2022-10-18T16:48:59.466Z,10.44
2022-10-18T16:51:27.163Z,10.42
2022-10-18T16:53:55.006Z,10.38
2022-10-18T16:56:31.539Z,10.50
2022-10-18T16:58:59.856Z,10.34
2022-10-18T17:01:27.398Z,10.38
2022-10-18T17:03:55.580Z,10.42
2022-10-18T17:06:25.835Z,10.44
2022-10-18T17:08:54.520Z,10.42
2022-10-18T17:11:24.973Z,10.55
2022-10-18T17:13:52.982Z,10.39
2022-10-18T17:16:33.118Z,10.50
2022-10-18T17:19:05.303Z,10.45
2022-10-18T17:21:33.868Z,10.39
2022-10-18T17:24:04.485Z,10.41
2022-10-18T17:26:32.878Z,10.38
2022-10-18T17:29:04.555Z,10.48
2022-10-18T17:31:33.209Z,10.37
2022-10-18T17:34:02.160Z,10.39
2022-10-18T17:36:31.937Z,10.35
2022-10-18T17:39:00.109Z,10.35
2022-10-18T17:41:27.942Z,10.30
2022-10-18T17:43:55.617Z,10.28
2022-10-18T17:46:23.925Z,10.18
2022-10-18T17:48:51.536Z,10.23
2022-10-18T17:51:18.965Z,10.19
2022-10-18T17:53:46.668Z,10.20
2022-10-18T17:56:14.910Z,10.15
2022-10-18T17:58:43.838Z,10.14
2022-10-18T18:01:18.791Z,10.14
2022-10-18T18:03:48.073Z,10.09
2022-10-18T18:06:21.150Z,10.17
2022-10-18T18:08:49.604Z,10.15
2022-10-18T18:11:18.100Z,10.13
2022-10-18T18:13:45.529Z,10.13
2022-10-18T18:16:17.326Z,10.21
2022-10-18T18:18:46.975Z,10.20
2022-10-18T18:21:14.570Z,10.23
2022-10-18T18:23:42.201Z,10.20
2022-10-18T18:26:09.778Z,10.20
2022-10-18T18:28:37.565Z,10.22
2022-10-18T18:31:09.656Z,10.29
2022-10-18T18:33:37.737Z,10.19
2022-10-18T18:36:06.854Z,10.21
2022-10-18T18:38:36.494Z,10.14
2022-10-18T18:41:12.313Z,10.19
2022-10-18T18:43:44.171Z,10.22
2022-10-18T18:46:13.215Z,10.12
2022-10-18T18:48:41.294Z,10.03
2022-10-18T18:51:13.772Z,10.09
2022-10-18T18:53:41.870Z,10.03
2022-10-18T18:56:13.069Z,10.12
2022-10-18T18:58:44.456Z,10.11
2022-10-18T19:01:19.155Z,10.18
2022-10-18T19:03:50.245Z,10.22
2022-10-18T19:06:23.456Z,10.22
2022-10-18T19:08:54.281Z,10.19
2022-10-18T19:11:23.152Z,10.22
2022-10-18T19:13:50.611Z,10.17
2022-10-18T19:16:38.745Z,10.34
2022-10-18T19:19:18.541Z,10.39
2022-10-18T19:21:48.182Z,10.24
2022-10-18T19:24:16.235Z,10.17
2022-10-18T19:26:56.297Z,10.33
2022-10-18T19:29:24.969Z,10.22
2022-10-18T19:31:55.087Z,10.21
2022-10-18T19:34:24.992Z,10.19
2022-10-18T19:36:52.869Z,10.16
2022-10-18T19:39:28.269Z,10.26
2022-10-18T19:41:59.595Z,10.18
2022-10-18T19:44:30.836Z,10.21
2022-10-18T19:46:59.012Z,10.19
2022-10-18T19:49:28.849Z,10.16
2022-10-18T19:51:56.814Z,10.18
2022-10-18T19:54:24.783Z,10.19
2022-10-18T19:56:52.234Z,10.14
2022-10-18T19:59:20.073Z,10.21
2022-10-18T20:01:47.534Z,10.18
2022-10-18T20:04:16.530Z,10.21
2022-10-18T20:06:44.364Z,10.12
2022-10-18T20:09:16.217Z,10.20
2022-10-18T20:11:46.906Z,10.18
2022-10-18T20:14:14.330Z,10.15
2022-10-18T20:16:43.090Z,10.10
2022-10-18T20:19:10.818Z,10.11
2022-10-18T20:21:39.674Z,10.07
2022-10-18T20:24:09.549Z,10.03
2022-10-18T20:26:36.913Z,10.01
2022-10-18T20:29:04.775Z,10.02
2022-10-18T20:31:35.816Z,10.06
2022-10-18T20:34:06.731Z,10.09
2022-10-18T20:36:35.013Z,10.00
2022-10-18T20:39:04.090Z,10.03
2022-10-18T20:41:34.483Z,10.03
2022-10-18T20:44:04.554Z,10.05
2022-10-18T20:46:34.735Z,10.05
2022-10-18T20:49:03.030Z,10.02
2022-10-18T20:51:30.667Z,9.97
2022-10-18T20:53:58.467Z,9.94
2022-10-18T20:56:29.062Z,9.91
2022-10-18T20:58:58.325Z,10.00
2022-10-18T21:01:28.468Z,10.01
2022-10-18T21:03:57.759Z,10.00
2022-10-18T21:06:30.212Z,9.92
2022-10-18T21:09:00.528Z,10.00
2022-10-18T21:11:30.241Z,10.04
2022-10-18T21:14:00.400Z,10.06
2022-10-18T21:16:27.912Z,9.98
2022-10-18T21:18:55.801Z,10.01
2022-10-18T21:21:24.949Z,10.03
2022-10-18T21:23:52.912Z,10.01
2022-10-18T21:26:22.933Z,10.07
2022-10-18T21:28:52.082Z,10.08
2022-10-18T21:31:22.064Z,10.09
2022-10-18T21:33:54.436Z,10.14
2022-10-18T21:36:22.250Z,10.04
2022-10-18T21:38:50.491Z,10.05
2022-10-18T21:41:20.358Z,10.10
2022-10-18T21:43:50.533Z,10.14
2022-10-18T21:46:19.678Z,10.10
2022-10-18T21:48:49.469Z,10.02
2022-10-18T21:51:19.648Z,10.02
2022-10-18T21:53:49.145Z,9.98
2022-10-18T21:56:18.907Z,10.00
2022-10-18T21:58:46.873Z,9.94
2022-10-18T22:01:19.206Z,10.04
2022-10-18T22:03:49.252Z,9.99
2022-10-18T22:06:17.854Z,9.92
2022-10-18T22:08:57.003Z,10.04
2022-10-18T22:11:30.721Z,10.03
2022-10-18T22:13:58.573Z,9.92
2022-10-18T22:16:26.786Z,9.89
2022-10-18T22:18:58.733Z,9.96
2022-10-18T22:21:26.746Z,9.88
2022-10-18T22:23:57.228Z,9.95
2022-10-18T22:26:36.727Z,10.06
2022-10-18T22:29:07.302Z,9.93
2022-10-18T22:31:38.696Z,10.00
2022-10-18T22:34:09.251Z,10.00
2022-10-18T22:36:37.443Z,9.99
2022-10-18T22:39:06.291Z,9.99
2022-10-18T22:41:34.909Z,9.93
2022-10-18T22:44:03.834Z,9.93
2022-10-18T22:46:33.144Z,9.89
2022-10-18T22:49:00.516Z,9.97
2022-10-18T22:51:28.124Z,9.95
2022-10-18T22:53:55.884Z,9.97
2022-10-18T22:56:24.132Z,9.99
2022-10-18T22:58:51.767Z,9.94
2022-10-18T23:01:21.538Z,9.95
2022-10-18T23:03:56.631Z,10.07
2022-10-18T23:06:26.979Z,10.03
2022-10-18T23:08:56.669Z,10.04
2022-10-18T23:11:25.193Z,10.02
2022-10-18T23:13:52.795Z,9.95
2022-10-18T23:16:21.096Z,9.94
2022-10-18T23:18:56.077Z,9.95
2022-10-18T23:21:25.580Z,9.85
2022-10-18T23:23:54.247Z,9.91
2022-10-18T23:26:27.615Z,9.90
2022-10-18T23:28:55.575Z,9.85
2022-10-18T23:31:32.945Z,9.98
2022-10-18T23:34:04.507Z,9.88
2022-10-18T23:36:33.528Z,9.88
2022-10-18T23:39:02.021Z,9.84
2022-10-18T23:41:29.870Z,9.82
2022-10-18T23:43:57.369Z,9.81
2022-10-18T23:46:25.158Z,9.82
2022-10-18T23:48:52.544Z,9.81
2022-10-18T23:51:20.021Z,9.79
2022-10-18T23:53:47.471Z,9.73
2022-10-18T23:56:16.730Z,9.83
2022-10-18T23:58:45.385Z,9.78
